Time;durP1;ratioP1;P1;durP2;ratioP2;P2;SDS_P1;SDS_P2;PMS_P1;PMS_P2;Temp;Humidity;BMP_temperature;BMP_pressure;BME280_temperature;BME280_humidity;BME280_pressure;Samples;Min_cycle;Max_cycle;Signal;HPM_P1;HPM_P2
2021/09/11 00:00:26;;;;;;;26.25;15.55;;;;;;;15.13;62.71;99694.87;1764944;80;21064;-40
2021/09/11 00:02:53;;;;;;;23.35;15.05;;;;;;;15.10;62.70;99695.61;1757365;80;21544;-40
2021/09/11 00:05:19;;;;;;;22.65;14.35;;;;;;;15.07;62.54;99696.39;1746769;80;21048;-40
2021/09/11 00:07:46;;;;;;;23.10;15.15;;;;;;;15.04;62.47;99693.64;1770566;80;21041;-40
2021/09/11 00:10:14;;;;;;;24.85;16.35;;;;;;;15.01;62.46;99692.44;1721288;82;21822;-40
2021/09/11 00:12:40;;;;;;;28.05;18.52;;;;;;;15.03;62.27;99692.07;1721312;80;20974;-40
2021/09/11 00:15:11;;;;;;;30.95;20.08;;;;;;;15.05;61.79;99689.17;1759630;80;20996;-40
2021/09/11 00:17:39;;;;;;;34.00;20.25;;;;;;;15.05;61.53;99687.02;1753314;80;21803;-40
2021/09/11 00:20:07;;;;;;;35.10;19.70;;;;;;;15.03;61.21;99684.66;1751813;80;21003;-40
2021/09/11 00:22:35;;;;;;;;;;;;;;;15.02;61.31;99684.45;1754186;80;21060;-40
2021/09/11 00:25:02;;;;;;;30.20;18.75;;;;;;;15.02;61.75;99689.91;1776609;80;20090;-40
2021/09/11 00:27:29;;;;;;;28.30;18.35;;;;;;;14.91;62.20;99685.57;1747206;80;20936;-40
2021/09/11 00:29:55;;;;;;;30.00;18.45;;;;;;;14.92;62.22;99697.45;1758446;80;21002;-40
2021/09/11 00:32:22;;;;;;;33.42;19.42;;;;;;;14.91;62.18;99690.42;1752589;80;21048;-40
2021/09/11 00:34:48;;;;;;;28.12;18.67;;;;;;;14.90;61.90;99692.97;1753243;80;21148;-40
2021/09/11 00:37:17;;;;;;;30.88;19.12;;;;;;;14.87;61.90;99689.62;1764676;80;21036;-40
2021/09/11 00:39:44;;;;;;;29.95;18.30;;;;;;;14.85;62.00;99693.33;1770633;79;21053;-40
2021/09/11 00:42:12;;;;;;;28.57;18.95;;;;;;;14.81;62.00;99691.16;1764763;80;20922;-40
2021/09/11 00:44:39;;;;;;;26.55;17.30;;;;;;;14.77;62.19;99694.42;1758945;80;20998;-40
2021/09/11 00:47:06;;;;;;;27.80;17.48;;;;;;;14.78;62.29;99690.53;1773727;80;21105;-40
2021/09/11 00:49:33;;;;;;;30.97;19.42;;;;;;;14.82;62.00;99695.43;1763645;80;21520;-40
2021/09/11 00:51:59;;;;;;;28.70;18.23;;;;;;;14.84;61.95;99693.12;1743019;82;21036;-40
2021/09/11 00:54:26;;;;;;;30.25;18.02;;;;;;;14.85;62.11;99696.64;1752557;80;21073;-40
2021/09/11 00:56:55;;;;;;;28.87;18.17;;;;;;;14.87;62.04;99696.44;1727515;80;21021;-40
2021/09/11 00:59:21;;;;;;;30.75;18.77;;;;;;;14.88;61.89;99689.83;1761569;80;21140;-40
2021/09/11 01:01:48;;;;;;;29.85;17.77;;;;;;;14.89;61.75;99684.58;1762620;80;21061;-40
2021/09/11 01:04:16;;;;;;;32.30;19.05;;;;;;;14.86;61.71;99686.71;1773057;80;20981;-40
2021/09/11 01:06:42;;;;;;;30.00;18.95;;;;;;;14.84;61.69;99687.66;1758754;80;21029;-40
2021/09/11 01:09:09;;;;;;;29.42;18.65;;;;;;;14.80;61.89;99681.40;1743732;80;21030;-40
2021/09/11 01:11:38;;;;;;;32.80;19.60;;;;;;;14.75;62.13;99678.44;1771351;80;20985;-40
2021/09/11 01:14:06;;;;;;;29.95;19.32;;;;;;;14.72;62.20;99680.55;1738450;80;21027;-40
2021/09/11 01:16:34;;;;;;;27.95;18.87;;;;;;;14.67;62.24;99680.11;1744173;79;21543;-40
2021/09/11 01:19:01;;;;;;;26.52;17.67;;;;;;;14.62;62.29;99677.77;1742825;80;21009;-40
2021/09/11 01:21:27;;;;;;;24.65;16.87;;;;;;;14.61;62.26;99674.25;1752101;80;21520;-40
2021/09/11 01:23:56;;;;;;;25.10;17.25;;;;;;;14.61;61.96;99672.09;1759809;80;21308;-40
2021/09/11 01:26:22;;;;;;;25.48;17.45;;;;;;;14.56;61.86;99675.17;1746046;80;21018;-40
2021/09/11 01:28:49;;;;;;;27.07;17.02;;;;;;;14.49;61.82;99682.71;1747231;80;21069;-40
2021/09/11 01:31:15;;;;;;;30.27;19.23;;;;;;;14.12;61.71;99633.67;1748141;80;21002;-40
2021/09/11 01:33:42;;;;;;;26.17;17.40;;;;;;;14.36;61.64;99675.98;1744539;80;21552;-40
2021/09/11 01:36:10;;;;;;;25.55;17.52;;;;;;;14.30;61.70;99672.78;1773683;80;20922;-40
2021/09/11 01:38:36;;;;;;;26.15;18.35;;;;;;;14.26;61.72;99667.88;1747454;80;21589;-40
2021/09/11 01:41:03;;;;;;;26.75;16.77;;;;;;;14.22;61.70;99664.34;1734646;80;21073;-40
2021/09/11 01:43:31;;;;;;;26.70;16.87;;;;;;;14.18;61.77;99660.81;1755047;80;21049;-40
2021/09/11 01:45:58;;;;;;;28.17;17.90;;;;;;;14.13;62.01;99667.19;1757849;80;21443;-40
2021/09/11 01:48:28;;;;;;;28.00;18.17;;;;;;;14.06;62.29;99666.52;1787391;80;21121;-40
2021/09/11 01:50:55;;;;;;;25.10;16.48;;;;;;;13.99;62.39;99670.53;1752914;80;21025;-40
2021/09/11 01:53:21;;;;;;;25.25;15.95;;;;;;;13.96;62.52;99665.84;1758037;80;21025;-40
2021/09/11 01:55:48;;;;;;;24.98;16.37;;;;;;;13.97;62.65;99667.41;1757405;80;21029;-40
2021/09/11 01:58:15;;;;;;;30.37;17.12;;;;;;;13.99;62.76;99669.16;1763080;80;21034;-40
2021/09/11 02:00:44;;;;;;;28.80;18.10;;;;;;;13.97;62.65;99665.26;1764752;79;21175;-40
2021/09/11 02:03:10;;;;;;;25.17;16.87;;;;;;;13.94;62.65;99666.20;1728159;81;21582;-40
2021/09/11 02:05:37;;;;;;;29.95;19.20;;;;;;;13.92;62.74;99666.38;1746339;80;21578;-40
2021/09/11 02:08:04;;;;;;;29.85;18.52;;;;;;;13.91;62.78;99663.45;1720908;82;21025;-40
2021/09/11 02:10:30;;;;;;;29.10;19.02;;;;;;;13.88;62.83;99663.63;1699769;83;21595;-40
2021/09/11 02:12:58;;;;;;;27.98;18.80;;;;;;;13.88;62.68;99670.45;1702384;84;21828;-40
2021/09/11 02:15:25;;;;;;;29.75;19.07;;;;;;;13.83;62.67;99671.36;1708391;82;21038;-40
2021/09/11 02:17:51;;;;;;;31.40;18.65;;;;;;;13.81;62.84;99670.36;1689359;82;21077;-40
2021/09/11 02:20:18;;;;;;;30.88;17.87;;;;;;;13.76;62.87;99671.27;1705388;82;21563;-40
2021/09/11 02:22:45;;;;;;;25.82;17.12;;;;;;;13.76;62.95;99676.71;1685954;85;21077;-40
2021/09/11 02:25:11;;;;;;;28.77;18.17;;;;;;;13.80;62.92;99671.50;1734615;82;21134;-40
2021/09/11 02:27:38;;;;;;;31.62;18.32;;;;;;;13.83;62.77;99672.72;1697128;83;20972;-40
2021/09/11 02:30:07;;;;;;;29.70;18.07;;;;;;;13.80;62.56;99672.87;1708612;82;21002;-40
2021/09/11 02:32:33;;;;;;;26.75;18.95;;;;;;;13.79;62.50;99677.34;1701057;83;20997;-40
2021/09/11 02:35:01;;;;;;;25.50;17.20;;;;;;;13.77;62.37;99674.20;1690317;82;20998;-40
2021/09/11 02:37:27;;;;;;;25.55;17.82;;;;;;;13.74;62.18;99669.51;1675119;83;21107;-40
2021/09/11 02:39:54;;;;;;;26.15;18.02;;;;;;;13.72;62.13;99677.26;1675537;83;21477;-40
2021/09/11 02:42:20;;;;;;;25.25;17.27;;;;;;;13.70;62.04;99678.98;1674090;85;21036;-40
2021/09/11 02:44:46;;;;;;;29.48;18.82;;;;;;;13.67;62.02;99675.65;1687108;83;20981;-40
2021/09/11 02:47:13;;;;;;;25.60;18.25;;;;;;;13.62;61.99;99673.83;1746377;80;21307;-39
2021/09/11 02:49:39;;;;;;;26.97;18.17;;;;;;;13.57;62.23;99674.95;1714811;82;21111;-39
2021/09/11 02:52:07;;;;;;;27.77;18.35;;;;;;;13.55;62.36;99680.00;1759477;80;20993;-39
2021/09/11 02:54:35;;;;;;;23.13;16.97;;;;;;;13.51;62.55;99679.75;1743747;80;21017;-39
2021/09/11 02:58:14;;;;;;;23.20;17.00;;;;;;;13.57;62.65;99676.88;1801971;78;23425;-39
2021/09/11 03:00:41;;;;;;;26.00;16.70;;;;;;;13.51;62.76;99675.06;1777466;80;21127;-39
2021/09/11 03:03:11;;;;;;;25.05;17.10;;;;;;;13.52;62.77;99675.85;1772768;80;21122;-40
2021/09/11 03:05:38;;;;;;;26.55;17.32;;;;;;;13.54;62.77;99681.15;1787228;80;20992;-40
2021/09/11 03:08:04;;;;;;;22.95;16.75;;;;;;;13.51;62.86;99674.30;1787525;80;20948;-40
2021/09/11 03:10:31;;;;;;;25.72;16.50;;;;;;;13.48;62.88;99667.07;1787538;79;21016;-40
2021/09/11 03:12:57;;;;;;;27.07;17.65;;;;;;;13.45;62.84;99674.63;1787782;79;21023;-40
2021/09/11 03:15:25;;;;;;;26.68;18.20;;;;;;;13.41;62.86;99671.63;1787434;80;22029;-40
2021/09/11 03:17:53;;;;;;;26.65;17.12;;;;;;;13.36;62.94;99670.02;1787655;80;21527;-40
2021/09/11 03:20:19;;;;;;;24.57;16.50;;;;;;;13.32;63.06;99671.13;1787573;79;20917;-40
2021/09/11 03:22:47;;;;;;;21.70;15.48;;;;;;;13.26;63.16;99672.05;1786600;80;21001;-40
2021/09/11 03:25:14;;;;;;;22.20;15.03;;;;;;;13.24;63.10;99666.19;1787526;80;21765;-40
2021/09/11 03:27:41;;;;;;;22.90;16.23;;;;;;;13.26;62.92;99673.41;1787680;80;21809;-40
2021/09/11 03:30:09;;;;;;;27.15;16.32;;;;;;;13.28;62.87;99676.53;1787686;80;20917;-40
2021/09/11 03:32:35;;;;;;;23.92;16.07;;;;;;;13.27;62.77;99681.77;1787815;80;21079;-40
2021/09/11 03:35:04;;;;;;;25.30;16.95;;;;;;;13.27;62.92;99677.69;1786705;79;20996;-40
2021/09/11 03:37:31;;;;;;;26.85;16.75;;;;;;;13.26;62.76;99682.16;1775353;80;21028;-40
2021/09/11 03:39:58;;;;;;;23.87;16.93;;;;;;;13.24;63.00;99684.45;1781674;80;21105;-40
2021/09/11 03:42:24;;;;;;;25.32;16.57;;;;;;;13.16;63.53;99684.95;1772582;80;21024;-39
2021/09/11 03:44:51;;;;;;;29.80;17.52;;;;;;;13.11;63.84;99683.91;1756451;80;20961;-39
2021/09/11 03:47:18;;;;;;;25.72;17.80;;;;;;;13.08;63.80;99688.67;1702954;84;21035;-40
2021/09/11 03:49:45;;;;;;;21.73;15.25;;;;;;;13.05;64.09;99683.98;1711386;82;21080;-40
2021/09/11 03:52:13;;;;;;;24.25;16.07;;;;;;;13.07;64.23;99684.38;1702610;82;21017;-40
2021/09/11 03:54:40;;;;;;;25.23;17.23;;;;;;;13.13;64.28;99683.52;1702777;82;20984;-40
2021/09/11 03:57:07;;;;;;;25.57;16.17;;;;;;;13.18;64.25;99683.98;1713884;82;21077;-40
2021/09/11 03:59:34;;;;;;;24.32;16.40;;;;;;;13.19;64.33;99687.49;1707786;82;21101;-40
2021/09/11 04:02:00;;;;;;;26.68;18.00;;;;;;;13.21;64.35;99685.98;1726674;82;21109;-40
2021/09/11 04:04:27;;;;;;;24.45;17.17;;;;;;;13.26;64.29;99688.39;1761338;80;21793;-40
2021/09/11 04:06:54;;;;;;;27.05;17.90;;;;;;;13.27;64.44;99690.51;1766803;80;20957;-40
2021/09/11 04:09:21;;;;;;;24.02;17.05;;;;;;;13.28;64.56;99696.17;1772868;80;21043;-40
2021/09/11 04:11:49;;;;;;;25.57;17.75;;;;;;;13.29;64.74;99693.09;1751342;80;21472;-40
2021/09/11 04:14:16;;;;;;;24.52;15.95;;;;;;;13.31;64.96;99699.53;1761170;80;21021;-40
2021/09/11 04:16:44;;;;;;;23.18;16.73;;;;;;;13.35;65.04;99697.64;1766589;80;20961;-40
2021/09/11 04:19:12;;;;;;;29.63;17.60;;;;;;;13.43;65.14;99698.72;1731466;80;20969;-40
2021/09/11 04:21:41;;;;;;;28.95;18.42;;;;;;;13.52;64.99;99694.91;1747408;80;21057;-40
2021/09/11 04:24:07;;;;;;;26.25;18.00;;;;;;;13.57;65.01;99700.04;1755055;80;21064;-40
2021/09/11 04:26:35;;;;;;;28.50;19.12;;;;;;;13.62;65.13;99696.98;1750728;82;20985;-40
2021/09/11 04:29:04;;;;;;;32.93;20.40;;;;;;;13.67;65.08;99696.66;1747789;82;21246;-40
2021/09/11 04:31:31;;;;;;;27.75;20.37;;;;;;;13.71;65.17;99698.27;1750005;82;21018;-40
2021/09/11 04:33:58;;;;;;;44.65;27.42;;;;;;;13.75;65.29;99701.02;1752764;80;21622;-40
2021/09/11 04:36:24;;;;;;;44.30;30.08;;;;;;;13.80;65.33;99703.42;1756880;80;21120;-40
2021/09/11 04:38:51;;;;;;;56.00;38.00;;;;;;;13.89;65.25;99701.21;1767458;80;21013;-40
2021/09/11 04:41:18;;;;;;;57.00;35.63;;;;;;;14.00;65.23;99702.66;1768432;80;21133;-40
2021/09/11 04:43:45;;;;;;;51.60;33.55;;;;;;;14.08;65.06;99702.96;1757545;80;21053;-40
2021/09/11 04:46:11;;;;;;;50.58;34.13;;;;;;;14.13;65.03;99702.63;1725798;82;21039;-40
2021/09/11 04:48:38;;;;;;;45.48;30.68;;;;;;;14.19;64.90;99706.56;1750931;82;21016;-40
2021/09/11 04:51:05;;;;;;;44.27;27.42;;;;;;;14.27;64.85;99704.13;1753170;80;21037;-40
2021/09/11 04:53:32;;;;;;;38.65;25.27;;;;;;;14.35;64.67;99706.53;1753095;80;21912;-40
2021/09/11 04:55:58;;;;;;;37.70;23.87;;;;;;;14.43;64.47;99705.25;1750151;82;20937;-40
2021/09/11 04:58:26;;;;;;;36.50;24.32;;;;;;;14.51;64.30;99704.17;1766502;80;21009;-40
2021/09/11 05:00:53;;;;;;;32.75;22.70;;;;;;;14.57;64.20;99702.67;1773778;80;21716;-40
2021/09/11 05:03:20;;;;;;;29.67;19.77;;;;;;;14.64;64.21;99701.34;1773727;80;21078;-40
2021/09/11 05:05:47;;;;;;;30.60;20.92;;;;;;;14.74;63.95;99703.37;1773486;80;21097;-40
2021/09/11 05:08:17;;;;;;;33.05;20.77;;;;;;;14.87;63.77;99703.27;1773584;80;21512;-40
2021/09/11 05:10:43;;;;;;;30.43;19.60;;;;;;;14.96;63.86;99705.08;1772594;80;21016;-40
2021/09/11 05:13:10;;;;;;;29.27;18.42;;;;;;;15.02;63.71;99702.20;1779038;80;21029;-40
2021/09/11 05:15:37;;;;;;;29.12;18.55;;;;;;;15.06;63.71;99701.64;1779190;80;21453;-40
2021/09/11 05:18:04;;;;;;;26.68;17.35;;;;;;;15.10;63.62;99699.70;1759110;80;21145;-40
2021/09/11 05:20:31;;;;;;;25.52;16.77;;;;;;;15.14;63.37;99697.02;1772799;80;21075;-40
2021/09/11 05:22:58;;;;;;;30.43;17.30;;;;;;;15.18;63.26;99692.36;1770677;80;20994;-40
2021/09/11 05:25:26;;;;;;;23.83;15.63;;;;;;;15.21;63.45;99693.73;1767097;80;21009;-40
2021/09/11 05:27:53;;;;;;;24.65;15.13;;;;;;;15.31;63.43;99696.90;1770745;80;21464;-40
2021/09/11 05:30:20;;;;;;;25.57;15.03;;;;;;;15.39;63.01;99692.48;1763389;80;21134;-40
2021/09/11 05:32:53;;;;;;;24.63;15.63;;;;;;;15.49;62.98;99695.05;1772882;80;21021;-40
2021/09/11 05:35:20;;;;;;;29.85;16.10;;;;;;;15.57;62.94;99688.48;1750675;80;20977;-41
2021/09/11 05:37:47;;;;;;;23.32;15.15;;;;;;;15.65;63.13;99688.69;1772736;80;21511;-41
2021/09/11 05:40:13;;;;;;;24.52;15.78;;;;;;;15.73;63.05;99690.30;1773694;80;21013;-41
2021/09/11 05:42:40;;;;;;;23.45;15.45;;;;;;;15.81;63.01;99685.05;1775692;80;21188;-41
2021/09/11 05:45:09;;;;;;;23.27;15.40;;;;;;;15.91;62.96;99691.13;1779054;80;21566;-41
2021/09/11 05:47:36;;;;;;;22.75;14.95;;;;;;;15.99;63.02;99688.59;1777198;80;20930;-41
2021/09/11 05:50:04;;;;;;;23.47;14.78;;;;;;;16.12;62.90;99693.72;1755997;80;21008;-41
2021/09/11 05:52:30;;;;;;;22.35;14.23;;;;;;;16.26;62.55;99691.00;1757416;80;21022;-41
2021/09/11 05:54:58;;;;;;;22.17;14.98;;;;;;;16.39;62.39;99694.33;1774834;80;21967;-41
2021/09/11 05:57:25;;;;;;;24.12;15.45;;;;;;;16.52;62.32;99697.45;1780672;80;21004;-41
2021/09/11 05:59:52;;;;;;;25.95;15.10;;;;;;;16.64;62.35;99699.84;1767870;80;22274;-41
2021/09/11 06:02:19;;;;;;;24.43;15.88;;;;;;;16.77;62.57;99698.85;1778813;80;21064;-41
2021/09/11 06:04:45;;;;;;;28.47;15.35;;;;;;;16.89;62.27;99701.20;1783168;80;21620;-41
2021/09/11 06:07:12;;;;;;;22.05;15.45;;;;;;;17.02;62.02;99698.82;1778130;80;21147;-41
2021/09/11 06:09:38;;;;;;;22.93;15.10;;;;;;;17.14;61.82;99698.39;1781902;80;20985;-41
2021/09/11 06:12:10;;;;;;;22.45;15.72;;;;;;;17.25;61.54;99693.67;1784967;80;21064;-41
2021/09/11 06:14:35;;;;;;;23.70;14.83;;;;;;;17.36;61.62;99698.55;1784709;80;21003;-41
2021/09/11 06:17:04;;;;;;;21.65;13.62;;;;;;;17.50;61.35;99699.86;1783585;80;20988;-41
2021/09/11 06:19:32;;;;;;;23.18;13.90;;;;;;;17.66;60.90;99689.84;1785080;80;21093;-41
2021/09/11 06:21:59;;;;;;;20.77;14.33;;;;;;;17.79;60.41;99695.85;1784817;80;21578;-41
2021/09/11 06:24:26;;;;;;;22.35;14.70;;;;;;;17.91;60.24;99695.22;1766751;80;20969;-41
2021/09/11 06:26:53;;;;;;;23.52;14.07;;;;;;;18.01;60.09;99697.12;1781735;80;20934;-41
2021/09/11 06:29:21;;;;;;;22.48;14.07;;;;;;;18.13;59.72;99692.52;1784401;80;21071;-41
2021/09/11 06:31:48;;;;;;;27.35;14.38;;;;;;;18.24;59.52;99690.50;1785103;80;21562;-41
2021/09/11 06:34:14;;;;;;;21.15;14.03;;;;;;;18.34;59.58;99696.50;1782189;80;21320;-41
2021/09/11 06:36:41;;;;;;;22.10;14.47;;;;;;;18.43;59.50;99695.45;1781858;80;21040;-41
2021/09/11 06:39:07;;;;;;;21.68;14.78;;;;;;;18.50;59.30;99692.64;1763573;80;21026;-41
2021/09/11 06:41:34;;;;;;;23.57;14.15;;;;;;;18.57;59.15;99701.45;1750857;82;21084;-41
2021/09/11 06:44:01;;;;;;;21.45;14.35;;;;;;;18.65;59.46;99700.20;1763439;80;21922;-41
2021/09/11 06:46:28;;;;;;;19.48;13.68;;;;;;;18.75;59.42;99697.17;1785005;80;21653;-41
2021/09/11 06:48:55;;;;;;;18.75;13.58;;;;;;;18.87;59.03;99699.43;1778795;80;21559;-41
2021/09/11 06:51:22;;;;;;;25.70;14.10;;;;;;;19.00;58.79;99699.10;1750873;82;21823;-41
2021/09/11 06:53:49;;;;;;;20.95;13.18;;;;;;;19.14;58.26;99703.08;1758300;80;20980;-41
2021/09/11 06:56:16;;;;;;;18.45;13.68;;;;;;;19.28;58.08;99700.17;1781849;80;21829;-41
2021/09/11 06:58:43;;;;;;;16.30;12.28;;;;;;;19.44;58.27;99700.42;1743918;80;21004;-41
2021/09/11 07:01:10;;;;;;;21.37;12.50;;;;;;;19.60;57.78;99702.59;1757072;81;21009;-41
2021/09/11 07:03:37;;;;;;;19.70;11.73;;;;;;;19.76;57.25;99703.36;1717360;83;21078;-41
2021/09/11 07:06:05;;;;;;;21.87;11.60;;;;;;;19.91;56.82;99700.02;1699027;84;21053;-41
2021/09/11 07:08:34;;;;;;;21.17;12.05;;;;;;;20.08;56.62;99702.35;1699049;84;21184;-41
2021/09/11 07:11:00;;;;;;;15.68;11.35;;;;;;;20.24;56.23;99702.49;1717327;83;20992;-41
2021/09/11 07:13:28;;;;;;;21.65;11.75;;;;;;;20.39;55.79;99696.98;1714974;83;21005;-41
2021/09/11 07:15:55;;;;;;;17.27;12.28;;;;;;;20.57;55.61;99704.20;1716835;83;20957;-41
2021/09/11 07:18:23;;;;;;;19.80;10.70;;;;;;;20.71;54.58;99705.34;1705559;82;21571;-41
2021/09/11 07:20:50;;;;;;;16.85;10.58;;;;;;;20.85;54.28;99699.59;1709450;83;22105;-41
2021/09/11 07:23:17;;;;;;;16.10;10.70;;;;;;;21.01;53.61;99707.19;1709208;83;20994;-41
2021/09/11 07:25:43;;;;;;;13.40;9.70;;;;;;;21.17;53.80;99703.95;1688675;85;21824;-41
2021/09/11 07:28:10;;;;;;;13.58;9.43;;;;;;;21.34;52.49;99698.52;1750035;81;21041;-41
2021/09/11 07:30:36;;;;;;;17.85;10.03;;;;;;;21.50;51.51;99695.82;1761417;81;22366;-41
2021/09/11 07:33:04;;;;;;;18.42;9.85;;;;;;;21.68;51.67;99696.26;1750552;81;21505;-41
2021/09/11 07:35:30;;;;;;;19.07;9.48;;;;;;;21.83;50.86;99703.03;1761766;81;21536;-41
2021/09/11 07:37:57;;;;;;;15.00;9.60;;;;;;;21.98;49.94;99701.53;1762994;81;21439;-41
2021/09/11 07:40:24;;;;;;;16.82;9.33;;;;;;;22.15;49.84;99696.83;1761852;81;21018;-41
2021/09/11 07:42:51;;;;;;;15.55;8.65;;;;;;;22.31;49.21;99696.08;1766075;80;21477;-41
2021/09/11 07:45:18;;;;;;;17.62;9.50;;;;;;;22.45;49.48;99697.12;1754829;81;21143;-41
2021/09/11 07:47:46;;;;;;;12.68;8.80;;;;;;;22.58;48.51;99696.59;1761454;81;20973;-41
2021/09/11 07:50:13;;;;;;;17.32;8.90;;;;;;;22.72;47.56;99694.88;1766831;81;21465;-41
2021/09/11 07:52:40;;;;;;;17.98;8.88;;;;;;;22.83;47.22;99699.55;1763655;81;21619;-41
2021/09/11 07:55:09;;;;;;;13.40;8.68;;;;;;;22.91;46.09;99693.99;1766813;81;21019;-41
2021/09/11 07:57:35;;;;;;;12.58;9.15;;;;;;;22.96;45.81;99696.23;1767374;80;21120;-42
2021/09/11 08:00:04;;;;;;;11.73;8.53;;;;;;;23.08;46.31;99696.73;1783519;80;21024;-42
2021/09/11 08:02:31;;;;;;;13.93;8.97;;;;;;;23.17;46.27;99692.73;1785246;80;20940;-41
2021/09/11 08:04:59;;;;;;;14.47;8.58;;;;;;;23.23;45.91;99697.91;1782465;80;20973;-42
2021/09/11 08:07:28;;;;;;;11.25;8.48;;;;;;;23.31;44.46;99693.73;1777459;79;21484;-41
2021/09/11 08:09:56;;;;;;;12.15;8.18;;;;;;;23.40;44.32;99693.86;1767166;80;21138;-42
2021/09/11 08:12:25;;;;;;;15.30;8.60;;;;;;;23.48;43.83;99692.47;1749879;80;21024;-41
2021/09/11 08:14:52;;;;;;;13.95;8.80;;;;;;;23.55;43.98;99689.52;1761758;80;21072;-41
2021/09/11 08:17:18;;;;;;;14.10;9.30;;;;;;;23.66;44.33;99691.98;1751999;81;21037;-41
2021/09/11 08:19:46;;;;;;;14.87;8.63;;;;;;;23.75;43.73;99690.11;1744933;80;21028;-42
2021/09/11 08:22:13;;;;;;;12.65;8.80;;;;;;;23.85;43.64;99693.00;1748357;82;21780;-41
2021/09/11 08:24:40;;;;;;;13.65;9.00;;;;;;;23.98;43.84;99693.78;1754123;80;21839;-42
2021/09/11 08:27:08;;;;;;;11.18;8.35;;;;;;;24.12;43.87;99691.36;1772719;80;21857;-41
2021/09/11 08:29:35;;;;;;;12.07;8.93;;;;;;;24.27;43.33;99686.17;1774402;80;20937;-42
2021/09/11 08:32:03;;;;;;;14.53;8.73;;;;;;;24.39;41.17;99683.23;1774616;80;21017;-42
2021/09/11 08:34:30;;;;;;;11.60;8.63;;;;;;;24.46;40.29;99676.84;1773713;80;21515;-41
2021/09/11 08:36:56;;;;;;;13.00;9.10;;;;;;;24.56;40.11;99675.72;1742492;80;20981;-41
2021/09/11 08:39:25;;;;;;;13.18;8.80;;;;;;;24.71;40.07;99675.25;1760426;80;21273;-42
2021/09/11 08:41:55;;;;;;;16.45;8.73;;;;;;;24.84;39.31;99671.20;1756895;80;21025;-42
2021/09/11 08:44:23;;;;;;;15.75;7.92;;;;;;;24.92;39.46;99671.17;1752226;81;21075;-41
2021/09/11 08:46:52;;;;;;;12.78;8.93;;;;;;;24.97;38.90;99668.44;1752899;80;20964;-41
2021/09/11 08:49:19;;;;;;;9.03;6.92;;;;;;;25.02;38.78;99663.70;1747639;80;20921;-42
2021/09/11 08:51:46;;;;;;;9.90;7.20;;;;;;;25.14;39.07;99664.25;1741335;82;21015;-41
2021/09/11 08:54:19;;;;;;;8.78;6.83;;;;;;;25.29;38.79;99664.52;1757576;80;21044;-42
2021/09/11 08:56:48;;;;;;;10.20;6.33;;;;;;;25.43;37.54;99659.22;1742987;80;21024;-42
2021/09/11 08:59:20;;;;;;;10.15;6.70;;;;;;;25.58;37.43;99657.33;1772664;80;21120;-42
2021/09/11 09:02:09;;;;;;;8.23;6.08;;;;;;;25.70;37.18;99656.48;1764908;80;21078;-42
2021/09/11 09:04:51;;;;;;;8.57;6.17;;;;;;;25.81;37.44;99652.66;1754941;80;20969;-41
2021/09/11 09:07:40;;;;;;;7.80;6.10;;;;;;;25.97;36.21;99655.21;1769111;80;21630;-42
2021/09/11 09:10:11;;;;;;;10.32;6.37;;;;;;;26.10;36.42;99652.31;1748154;80;20998;-41
2021/09/11 09:12:41;;;;;;;10.18;6.47;;;;;;;26.24;35.75;99644.83;1738134;82;21135;-42
2021/09/11 09:15:10;;;;;;;8.23;6.15;;;;;;;26.37;36.17;99645.50;1721247;83;20992;-42
2021/09/11 09:17:47;;;;;;;9.60;6.50;;;;;;;26.49;36.00;99639.03;1743210;80;20906;-42
2021/09/11 09:20:21;;;;;;;6.50;5.80;;;;;;;26.64;35.20;99642.76;1758852;80;20977;-41
2021/09/11 09:22:53;;;;;;;12.00;5.78;;;;;;;26.78;34.93;99639.37;1755815;80;21004;-41
2021/09/11 09:25:22;;;;;;;8.38;5.45;;;;;;;26.96;34.53;99637.88;1741156;81;21585;-42
2021/09/11 09:27:58;;;;;;;9.48;5.80;;;;;;;27.10;33.07;99631.06;1749906;80;20987;-42
2021/09/11 09:30:49;;;;;;;9.08;5.62;;;;;;;27.21;32.65;99638.30;1752029;80;21004;-41
2021/09/11 09:33:21;;;;;;;8.58;5.70;;;;;;;27.30;32.62;99635.37;1760426;80;21583;-41
2021/09/11 09:35:49;;;;;;;10.28;6.20;;;;;;;27.44;32.92;99630.55;1747283;82;21044;-41
2021/09/11 09:38:16;;;;;;;8.73;5.78;;;;;;;27.61;32.40;99630.36;1762751;80;21094;-41
2021/09/11 09:40:48;;;;;;;8.78;6.12;;;;;;;27.81;31.90;99627.82;1765031;80;21021;-41
2021/09/11 09:43:38;;;;;;;7.85;6.12;;;;;;;27.96;32.34;99623.73;1744670;81;21622;-41
2021/09/11 09:46:12;;;;;;;7.40;6.10;;;;;;;28.07;30.81;99621.22;1738090;81;20998;-41
2021/09/11 09:48:41;;;;;;;9.38;6.30;;;;;;;28.21;31.81;99626.74;1747507;80;21918;-41
2021/09/11 09:51:13;;;;;;;7.03;5.90;;;;;;;28.30;31.62;99623.28;1730384;80;21068;-41
2021/09/11 09:53:42;;;;;;;7.72;5.62;;;;;;;28.45;31.95;99621.95;1748071;81;20992;-41
2021/09/11 09:56:09;;;;;;;7.12;5.80;;;;;;;28.65;31.37;99617.16;1755104;80;21092;-41
2021/09/11 09:58:35;;;;;;;8.00;5.47;;;;;;;28.79;31.16;99617.86;1749395;81;21650;-41
2021/09/11 10:01:03;;;;;;;8.03;5.80;;;;;;;28.91;31.08;99614.80;1743569;81;21098;-42
2021/09/11 10:03:32;;;;;;;6.83;5.65;;;;;;;29.02;31.07;99611.45;1735489;82;21631;-42
2021/09/11 10:06:16;;;;;;;7.37;5.53;;;;;;;29.13;30.86;99611.66;1742637;82;20967;-43
2021/09/11 10:08:56;;;;;;;8.08;5.85;;;;;;;29.23;30.18;99608.93;1717924;82;21526;-42
2021/09/11 10:11:38;;;;;;;7.62;5.45;;;;;;;29.29;30.32;99609.78;1744213;80;21023;-42
2021/09/11 10:14:14;;;;;;;6.80;5.47;;;;;;;29.43;29.87;99606.89;1723705;82;21810;-42
2021/09/11 10:16:44;;;;;;;7.95;5.72;;;;;;;29.61;29.89;99603.89;1732096;82;21160;-43
2021/09/11 10:19:20;;;;;;;9.40;5.50;;;;;;;29.76;29.60;99606.03;1703854;83;21008;-42
2021/09/11 10:21:48;;;;;;;7.65;5.58;;;;;;;29.86;28.88;99608.72;1740777;82;21494;-42
2021/09/11 10:24:25;;;;;;;7.08;5.90;;;;;;;29.95;28.05;99601.02;1733134;81;21055;-42
2021/09/11 10:26:59;;;;;;;8.40;5.40;;;;;;;30.06;28.11;99603.98;1733454;81;21548;-42
2021/09/11 10:29:39;;;;;;;8.00;5.55;;;;;;;30.19;28.35;99596.64;1735378;81;21788;-42
2021/09/11 10:32:10;;;;;;;7.37;5.80;;;;;;;30.32;28.89;99594.89;1729673;81;21755;-43
2021/09/11 10:35:05;;;;;;;8.25;5.28;;;;;;;30.42;27.66;99590.70;1727143;80;20937;-43
2021/09/11 10:37:52;;;;;;;7.67;5.95;;;;;;;30.49;26.99;99587.53;1743396;81;21036;-42
2021/09/11 10:40:36;;;;;;;7.35;5.85;;;;;;;30.51;28.01;99588.56;1745339;81;21033;-43
2021/09/11 10:43:31;;;;;;;6.87;5.75;;;;;;;30.69;28.29;99578.36;1724757;81;22121;-42
2021/09/11 10:46:02;;;;;;;9.93;6.45;;;;;;;30.91;27.28;99575.16;1743284;82;20969;-43
2021/09/11 10:48:42;;;;;;;8.43;6.42;;;;;;;31.08;26.40;99570.51;1749434;81;20990;-43
2021/09/11 10:51:20;;;;;;;7.67;5.95;;;;;;;31.22;26.31;99570.91;1698156;84;21040;-43
2021/09/11 10:54:12;;;;;;;8.13;6.25;;;;;;;31.33;26.37;99574.56;1767363;81;20997;-43
2021/09/11 10:56:45;;;;;;;8.75;6.33;;;;;;;31.46;25.94;99570.73;1769229;81;21755;-42
2021/09/11 10:59:21;;;;;;;8.78;6.72;;;;;;;31.58;25.49;99566.63;1768768;81;21574;-43
2021/09/11 11:02:32;;;;;;;9.68;6.55;;;;;;;31.71;25.58;99566.34;1752155;80;21089;-43
2021/09/11 11:05:09;;;;;;;9.18;6.50;;;;;;;31.81;25.05;99562.71;1753667;81;21512;-43
2021/09/11 11:07:47;;;;;;;8.88;6.60;;;;;;;31.83;25.65;99560.19;1739799;80;20957;-43
2021/09/11 11:10:17;;;;;;;10.13;6.33;;;;;;;31.92;25.09;99557.18;1743787;81;21295;-43
2021/09/11 11:12:47;;;;;;;8.05;5.97;;;;;;;31.96;24.77;99554.91;1752808;81;21013;-43
2021/09/11 11:15:17;;;;;;;8.58;6.40;;;;;;;32.00;25.06;99551.23;1747479;81;21492;-43
2021/09/11 11:17:47;;;;;;;7.83;6.28;;;;;;;32.10;25.46;99548.38;1755509;81;21110;-43
2021/09/11 11:20:21;;;;;;;8.95;6.03;;;;;;;32.21;25.56;99545.63;1732724;82;20952;-43
2021/09/11 11:22:48;;;;;;;9.50;6.45;;;;;;;32.38;25.16;99544.95;1740920;81;21578;-43
2021/09/11 11:25:18;;;;;;;9.03;6.25;;;;;;;32.55;25.91;99540.15;1756218;81;21036;-43
2021/09/11 11:27:44;;;;;;;6.78;6.05;;;;;;;32.75;25.18;99532.96;1742460;80;21001;-43
2021/09/11 11:30:11;;;;;;;12.15;6.45;;;;;;;32.96;24.61;99531.48;1653197;84;21491;-43